sensor_id;sensor_type;location;lat;lon;timestamp;temperature;humidity
45115;DHT22;30877;43.706;10.780;2023-07-31T00:02:05;25.40;96.70
45115;DHT22;30877;43.706;10.780;2023-07-31T00:04:34;25.30;96.70
45115;DHT22;30877;43.706;10.780;2023-07-31T00:07:04;25.30;96.70
45115;DHT22;30877;43.706;10.780;2023-07-31T00:09:34;25.20;96.70
45115;DHT22;30877;43.706;10.780;2023-07-31T00:12:02;25.20;96.70
45115;DHT22;30877;43.706;10.780;2023-07-31T00:14:31;25.20;96.70
45115;DHT22;30877;43.706;10.780;2023-07-31T00:16:59;25.20;96.70
45115;DHT22;30877;43.706;10.780;2023-07-31T00:19:27;25.20;96.70
45115;DHT22;30877;43.706;10.780;2023-07-31T00:21:55;25.20;96.70
45115;DHT22;30877;43.706;10.780;2023-07-31T00:24:25;25.20;96.70
45115;DHT22;30877;43.706;10.780;2023-07-31T00:26:53;25.20;96.70
45115;DHT22;30877;43.706;10.780;2023-07-31T00:29:21;25.20;96.70
45115;DHT22;30877;43.706;10.780;2023-07-31T00:31:49;25.20;96.70
45115;DHT22;30877;43.706;10.780;2023-07-31T00:34:18;25.20;96.70
45115;DHT22;30877;43.706;10.780;2023-07-31T00:36:46;25.10;96.70
45115;DHT22;30877;43.706;10.780;2023-07-31T00:39:16;25.00;96.70
45115;DHT22;30877;43.706;10.780;2023-07-31T00:41:46;25.00;96.70
45115;DHT22;30877;43.706;10.780;2023-07-31T00:44:14;25.00;96.70
45115;DHT22;30877;43.706;10.780;2023-07-31T00:46:43;25.00;96.70
45115;DHT22;30877;43.706;10.780;2023-07-31T00:49:11;25.00;96.70
45115;DHT22;30877;43.706;10.780;2023-07-31T00:51:40;25.00;96.70
45115;DHT22;30877;43.706;10.780;2023-07-31T00:54:08;25.00;96.70
45115;DHT22;30877;43.706;10.780;2023-07-31T00:56:39;25.00;96.70
45115;DHT22;30877;43.706;10.780;2023-07-31T01:02:19;24.90;96.70
45115;DHT22;30877;43.706;10.780;2023-07-31T01:04:48;24.90;96.70
45115;DHT22;30877;43.706;10.780;2023-07-31T01:07:22;24.90;96.70
45115;DHT22;30877;43.706;10.780;2023-07-31T01:09:59;24.90;96.70
45115;DHT22;30877;43.706;10.780;2023-07-31T01:12:32;24.80;96.70
45115;DHT22;30877;43.706;10.780;2023-07-31T01:15:05;24.70;96.70
45115;DHT22;30877;43.706;10.780;2023-07-31T01:17:37;24.60;96.70
45115;DHT22;30877;43.706;10.780;2023-07-31T01:20:11;24.50;96.70
45115;DHT22;30877;43.706;10.780;2023-07-31T01:23:05;24.50;96.70
45115;DHT22;30877;43.706;10.780;2023-07-31T01:26:00;24.50;96.70
45115;DHT22;30877;43.706;10.780;2023-07-31T01:28:42;24.50;96.70
45115;DHT22;30877;43.706;10.780;2023-07-31T01:31:18;24.40;96.70
45115;DHT22;30877;43.706;10.780;2023-07-31T01:33:50;24.50;96.70
45115;DHT22;30877;43.706;10.780;2023-07-31T01:36:23;24.50;96.70
45115;DHT22;30877;43.706;10.780;2023-07-31T01:38:57;24.50;96.70
45115;DHT22;30877;43.706;10.780;2023-07-31T01:41:28;24.50;96.70
45115;DHT22;30877;43.706;10.780;2023-07-31T01:43:58;24.50;96.70
45115;DHT22;30877;43.706;10.780;2023-07-31T01:46:27;24.50;96.70
45115;DHT22;30877;43.706;10.780;2023-07-31T01:48:57;24.50;96.70
45115;DHT22;30877;43.706;10.780;2023-07-31T01:51:26;24.40;96.70
45115;DHT22;30877;43.706;10.780;2023-07-31T01:53:59;24.40;96.70
45115;DHT22;30877;43.706;10.780;2023-07-31T01:56:35;24.30;96.70
45115;DHT22;30877;43.706;10.780;2023-07-31T01:59:05;24.30;96.70
45115;DHT22;30877;43.706;10.780;2023-07-31T02:01:34;24.30;96.70
45115;DHT22;30877;43.706;10.780;2023-07-31T02:04:03;24.30;96.70
45115;DHT22;30877;43.706;10.780;2023-07-31T02:06:33;24.20;96.70
45115;DHT22;30877;43.706;10.780;2023-07-31T02:09:03;24.20;96.70
45115;DHT22;30877;43.706;10.780;2023-07-31T02:11:34;24.20;96.70
45115;DHT22;30877;43.706;10.780;2023-07-31T02:14:03;24.20;96.70
45115;DHT22;30877;43.706;10.780;2023-07-31T02:16:32;24.30;96.70
45115;DHT22;30877;43.706;10.780;2023-07-31T02:19:01;24.20;96.70
45115;DHT22;30877;43.706;10.780;2023-07-31T02:21:31;24.20;96.70
45115;DHT22;30877;43.706;10.780;2023-07-31T02:24:00;24.20;96.70
45115;DHT22;30877;43.706;10.780;2023-07-31T02:26:29;24.10;96.70
45115;DHT22;30877;43.706;10.780;2023-07-31T02:29:00;24.10;96.70
45115;DHT22;30877;43.706;10.780;2023-07-31T02:31:29;24.10;96.70
45115;DHT22;30877;43.706;10.780;2023-07-31T02:33:58;24.20;96.70
45115;DHT22;30877;43.706;10.780;2023-07-31T02:36:27;24.10;96.70
45115;DHT22;30877;43.706;10.780;2023-07-31T02:38:56;24.10;96.70
45115;DHT22;30877;43.706;10.780;2023-07-31T02:41:26;24.10;96.70
45115;DHT22;30877;43.706;10.780;2023-07-31T02:43:56;24.10;96.70
45115;DHT22;30877;43.706;10.780;2023-07-31T02:46:27;24.00;96.70
45115;DHT22;30877;43.706;10.780;2023-07-31T02:48:56;24.00;96.70
45115;DHT22;30877;43.706;10.780;2023-07-31T02:51:25;24.00;96.70
45115;DHT22;30877;43.706;10.780;2023-07-31T02:53:54;24.00;96.70
45115;DHT22;30877;43.706;10.780;2023-07-31T02:56:23;24.00;96.70
45115;DHT22;30877;43.706;10.780;2023-07-31T02:58:53;24.00;96.70
45115;DHT22;30877;43.706;10.780;2023-07-31T03:01:22;24.00;96.70
45115;DHT22;30877;43.706;10.780;2023-07-31T03:03:52;23.90;96.70
45115;DHT22;30877;43.706;10.780;2023-07-31T03:06:22;23.90;96.70
45115;DHT22;30877;43.706;10.780;2023-07-31T03:08:51;24.00;96.70
45115;DHT22;30877;43.706;10.780;2023-07-31T03:11:21;24.00;96.70
45115;DHT22;30877;43.706;10.780;2023-07-31T03:13:50;24.00;96.70
45115;DHT22;30877;43.706;10.780;2023-07-31T03:16:19;23.80;96.70
45115;DHT22;30877;43.706;10.780;2023-07-31T03:18:48;23.80;96.70
45115;DHT22;30877;43.706;10.780;2023-07-31T03:21:19;23.80;96.70
45115;DHT22;30877;43.706;10.780;2023-07-31T03:23:48;23.80;96.70
45115;DHT22;30877;43.706;10.780;2023-07-31T03:26:17;23.80;96.70
45115;DHT22;30877;43.706;10.780;2023-07-31T03:28:47;23.80;96.70
45115;DHT22;30877;43.706;10.780;2023-07-31T03:31:16;23.90;96.70
45115;DHT22;30877;43.706;10.780;2023-07-31T03:33:45;23.90;96.70
45115;DHT22;30877;43.706;10.780;2023-07-31T03:36:15;23.80;96.70
45115;DHT22;30877;43.706;10.780;2023-07-31T03:38:46;23.80;96.70
45115;DHT22;30877;43.706;10.780;2023-07-31T03:41:15;23.70;96.70
45115;DHT22;30877;43.706;10.780;2023-07-31T03:43:46;23.70;96.70
45115;DHT22;30877;43.706;10.780;2023-07-31T03:46:15;23.80;96.70
45115;DHT22;30877;43.706;10.780;2023-07-31T03:48:44;23.90;96.70
45115;DHT22;30877;43.706;10.780;2023-07-31T03:51:13;23.80;96.70
45115;DHT22;30877;43.706;10.780;2023-07-31T03:53:45;23.70;96.70
45115;DHT22;30877;43.706;10.780;2023-07-31T03:56:14;23.60;96.70
45115;DHT22;30877;43.706;10.780;2023-07-31T03:58:43;23.50;96.70
45115;DHT22;30877;43.706;10.780;2023-07-31T04:01:12;23.50;96.70
45115;DHT22;30877;43.706;10.780;2023-07-31T04:03:42;23.50;96.70
45115;DHT22;30877;43.706;10.780;2023-07-31T04:06:11;23.50;96.70
45115;DHT22;30877;43.706;10.780;2023-07-31T04:08:40;23.50;96.70
45115;DHT22;30877;43.706;10.780;2023-07-31T04:11:11;23.40;96.70
45115;DHT22;30877;43.706;10.780;2023-07-31T04:13:44;23.40;96.70
45115;DHT22;30877;43.706;10.780;2023-07-31T04:16:13;23.40;96.70
45115;DHT22;30877;43.706;10.780;2023-07-31T04:18:42;23.40;96.70
45115;DHT22;30877;43.706;10.780;2023-07-31T04:21:11;23.40;96.70
45115;DHT22;30877;43.706;10.780;2023-07-31T04:23:41;23.40;96.70
45115;DHT22;30877;43.706;10.780;2023-07-31T04:26:11;23.50;96.70
45115;DHT22;30877;43.706;10.780;2023-07-31T04:28:40;23.50;96.70
45115;DHT22;30877;43.706;10.780;2023-07-31T04:31:09;23.50;96.70
45115;DHT22;30877;43.706;10.780;2023-07-31T04:33:39;23.50;96.70
45115;DHT22;30877;43.706;10.780;2023-07-31T04:36:09;23.40;96.70
45115;DHT22;30877;43.706;10.780;2023-07-31T04:38:38;23.40;96.70
45115;DHT22;30877;43.706;10.780;2023-07-31T04:41:07;23.50;96.70
45115;DHT22;30877;43.706;10.780;2023-07-31T04:43:38;23.50;96.70
45115;DHT22;30877;43.706;10.780;2023-07-31T04:46:08;23.50;96.70
45115;DHT22;30877;43.706;10.780;2023-07-31T04:48:37;23.60;96.70
45115;DHT22;30877;43.706;10.780;2023-07-31T04:51:07;23.50;96.70
45115;DHT22;30877;43.706;10.780;2023-07-31T04:53:36;23.50;96.70
45115;DHT22;30877;43.706;10.780;2023-07-31T04:56:05;23.50;96.70
45115;DHT22;30877;43.706;10.780;2023-07-31T04:58:34;23.50;96.70
45115;DHT22;30877;43.706;10.780;2023-07-31T05:01:05;23.60;96.70
45115;DHT22;30877;43.706;10.780;2023-07-31T05:03:34;23.60;96.70
45115;DHT22;30877;43.706;10.780;2023-07-31T05:06:04;23.50;96.70
45115;DHT22;30877;43.706;10.780;2023-07-31T05:08:33;23.50;96.70
45115;DHT22;30877;43.706;10.780;2023-07-31T05:11:02;23.60;96.70
45115;DHT22;30877;43.706;10.780;2023-07-31T05:13:32;23.60;96.70
45115;DHT22;30877;43.706;10.780;2023-07-31T05:16:01;23.60;96.70
45115;DHT22;30877;43.706;10.780;2023-07-31T05:18:32;23.70;96.70
45115;DHT22;30877;43.706;10.780;2023-07-31T05:21:01;23.80;96.70
45115;DHT22;30877;43.706;10.780;2023-07-31T05:23:30;23.80;96.70
45115;DHT22;30877;43.706;10.780;2023-07-31T05:26:04;23.70;96.70
45115;DHT22;30877;43.706;10.780;2023-07-31T05:28:35;23.70;96.70
45115;DHT22;30877;43.706;10.780;2023-07-31T05:31:06;23.70;96.70
45115;DHT22;30877;43.706;10.780;2023-07-31T05:33:37;23.80;96.70
45115;DHT22;30877;43.706;10.780;2023-07-31T05:36:06;23.80;96.70
45115;DHT22;30877;43.706;10.780;2023-07-31T05:38:35;23.70;96.70
45115;DHT22;30877;43.706;10.780;2023-07-31T05:41:05;23.50;96.70
45115;DHT22;30877;43.706;10.780;2023-07-31T05:43:34;23.60;96.70
45115;DHT22;30877;43.706;10.780;2023-07-31T05:46:04;23.50;96.70
45115;DHT22;30877;43.706;10.780;2023-07-31T05:48:33;23.50;96.70
45115;DHT22;30877;43.706;10.780;2023-07-31T05:51:04;23.60;96.70
45115;DHT22;30877;43.706;10.780;2023-07-31T05:53:34;23.70;96.70
45115;DHT22;30877;43.706;10.780;2023-07-31T05:56:04;23.80;96.70
45115;DHT22;30877;43.706;10.780;2023-07-31T05:58:33;24.00;96.70
45115;DHT22;30877;43.706;10.780;2023-07-31T06:01:03;24.00;96.70
45115;DHT22;30877;43.706;10.780;2023-07-31T06:03:32;24.00;96.70
45115;DHT22;30877;43.706;10.780;2023-07-31T06:06:03;24.10;96.70
45115;DHT22;30877;43.706;10.780;2023-07-31T06:08:32;24.20;96.70
45115;DHT22;30877;43.706;10.780;2023-07-31T06:11:02;24.30;96.70
45115;DHT22;30877;43.706;10.780;2023-07-31T06:13:31;24.30;96.70
45115;DHT22;30877;43.706;10.780;2023-07-31T06:16:00;24.40;96.70
45115;DHT22;30877;43.706;10.780;2023-07-31T06:18:34;24.40;96.70
45115;DHT22;30877;43.706;10.780;2023-07-31T06:21:05;24.50;96.70
45115;DHT22;30877;43.706;10.780;2023-07-31T06:23:34;24.60;96.70
45115;DHT22;30877;43.706;10.780;2023-07-31T06:26:04;24.60;96.70
45115;DHT22;30877;43.706;10.780;2023-07-31T06:28:33;24.70;96.70
45115;DHT22;30877;43.706;10.780;2023-07-31T06:31:02;24.80;96.70
45115;DHT22;30877;43.706;10.780;2023-07-31T06:33:32;24.90;96.70
45115;DHT22;30877;43.706;10.780;2023-07-31T06:36:01;24.80;96.70
45115;DHT22;30877;43.706;10.780;2023-07-31T06:38:32;24.80;96.70
45115;DHT22;30877;43.706;10.780;2023-07-31T06:41:02;24.80;96.70
45115;DHT22;30877;43.706;10.780;2023-07-31T06:43:31;24.80;96.70
45115;DHT22;30877;43.706;10.780;2023-07-31T06:46:04;24.70;96.70
45115;DHT22;30877;43.706;10.780;2023-07-31T06:48:35;24.80;96.70
45115;DHT22;30877;43.706;10.780;2023-07-31T06:51:05;24.90;96.70
45115;DHT22;30877;43.706;10.780;2023-07-31T06:53:34;25.00;96.70
45115;DHT22;30877;43.706;10.780;2023-07-31T06:56:03;25.20;96.70
45115;DHT22;30877;43.706;10.780;2023-07-31T06:58:31;25.30;96.70
45115;DHT22;30877;43.706;10.780;2023-07-31T07:01:00;25.30;96.70
45115;DHT22;30877;43.706;10.780;2023-07-31T07:03:28;25.40;96.70
45115;DHT22;30877;43.706;10.780;2023-07-31T07:05:56;25.50;96.70
45115;DHT22;30877;43.706;10.780;2023-07-31T07:08:24;25.50;96.70
45115;DHT22;30877;43.706;10.780;2023-07-31T07:10:55;25.50;96.70
45115;DHT22;30877;43.706;10.780;2023-07-31T07:13:23;25.60;96.70
45115;DHT22;30877;43.706;10.780;2023-07-31T07:15:52;25.70;96.70
45115;DHT22;30877;43.706;10.780;2023-07-31T07:18:20;25.80;96.70
45115;DHT22;30877;43.706;10.780;2023-07-31T07:20:50;25.90;96.70
45115;DHT22;30877;43.706;10.780;2023-07-31T07:23:19;25.90;96.70
45115;DHT22;30877;43.706;10.780;2023-07-31T07:25:47;26.00;96.70
45115;DHT22;30877;43.706;10.780;2023-07-31T07:28:17;26.10;96.70
45115;DHT22;30877;43.706;10.780;2023-07-31T07:30:51;26.10;96.70
45115;DHT22;30877;43.706;10.780;2023-07-31T07:33:21;26.00;96.70
45115;DHT22;30877;43.706;10.780;2023-07-31T07:35:49;26.10;96.70
45115;DHT22;30877;43.706;10.780;2023-07-31T07:38:17;26.20;96.70
45115;DHT22;30877;43.706;10.780;2023-07-31T07:40:47;26.30;96.70
45115;DHT22;30877;43.706;10.780;2023-07-31T07:43:19;26.40;96.70
45115;DHT22;30877;43.706;10.780;2023-07-31T07:45:47;26.50;96.70
45115;DHT22;30877;43.706;10.780;2023-07-31T07:48:15;26.60;96.70
45115;DHT22;30877;43.706;10.780;2023-07-31T07:50:45;26.70;96.70
45115;DHT22;30877;43.706;10.780;2023-07-31T07:53:13;26.80;96.70
45115;DHT22;30877;43.706;10.780;2023-07-31T07:55:42;26.90;96.70
45115;DHT22;30877;43.706;10.780;2023-07-31T07:58:10;27.00;96.70
45115;DHT22;30877;43.706;10.780;2023-07-31T08:00:39;27.10;96.70
45115;DHT22;30877;43.706;10.780;2023-07-31T08:03:07;27.30;96.70
45115;DHT22;30877;43.706;10.780;2023-07-31T08:05:35;27.40;96.70
45115;DHT22;30877;43.706;10.780;2023-07-31T08:08:03;27.40;96.70
45115;DHT22;30877;43.706;10.780;2023-07-31T08:10:32;27.50;96.70
45115;DHT22;30877;43.706;10.780;2023-07-31T08:12:59;27.60;96.70
45115;DHT22;30877;43.706;10.780;2023-07-31T08:15:28;27.70;96.70
45115;DHT22;30877;43.706;10.780;2023-07-31T08:17:57;27.80;96.70
45115;DHT22;30877;43.706;10.780;2023-07-31T08:20:27;27.80;96.70
45115;DHT22;30877;43.706;10.780;2023-07-31T08:22:55;28.00;96.70
45115;DHT22;30877;43.706;10.780;2023-07-31T08:25:23;28.00;96.70
45115;DHT22;30877;43.706;10.780;2023-07-31T08:27:51;28.10;96.70
45115;DHT22;30877;43.706;10.780;2023-07-31T08:30:20;28.20;96.70
45115;DHT22;30877;43.706;10.780;2023-07-31T08:32:49;28.20;96.70
45115;DHT22;30877;43.706;10.780;2023-07-31T08:35:19;28.10;96.70
45115;DHT22;30877;43.706;10.780;2023-07-31T08:37:47;28.00;96.70
45115;DHT22;30877;43.706;10.780;2023-07-31T08:40:15;28.00;96.70
45115;DHT22;30877;43.706;10.780;2023-07-31T08:42:44;27.90;96.70
45115;DHT22;30877;43.706;10.780;2023-07-31T08:45:15;27.90;96.70
45115;DHT22;30877;43.706;10.780;2023-07-31T08:47:46;27.90;96.70
45115;DHT22;30877;43.706;10.780;2023-07-31T08:50:16;28.00;96.70
45115;DHT22;30877;43.706;10.780;2023-07-31T08:52:48;28.10;96.70
45115;DHT22;30877;43.706;10.780;2023-07-31T08:55:16;28.20;96.70
45115;DHT22;30877;43.706;10.780;2023-07-31T08:57:45;28.30;96.70
45115;DHT22;30877;43.706;10.780;2023-07-31T09:00:14;28.30;96.70
45115;DHT22;30877;43.706;10.780;2023-07-31T09:02:46;28.30;96.70
45115;DHT22;30877;43.706;10.780;2023-07-31T09:05:15;28.40;96.70
45115;DHT22;30877;43.706;10.780;2023-07-31T09:07:47;28.40;96.70
45115;DHT22;30877;43.706;10.780;2023-07-31T09:10:17;28.40;96.70
45115;DHT22;30877;43.706;10.780;2023-07-31T09:12:47;28.50;96.70
45115;DHT22;30877;43.706;10.780;2023-07-31T09:15:17;28.60;96.70
45115;DHT22;30877;43.706;10.780;2023-07-31T09:18:05;28.60;96.70
45115;DHT22;30877;43.706;10.780;2023-07-31T09:20:34;28.60;96.70
45115;DHT22;30877;43.706;10.780;2023-07-31T09:23:09;28.60;96.70
45115;DHT22;30877;43.706;10.780;2023-07-31T09:25:39;28.60;96.70
45115;DHT22;30877;43.706;10.780;2023-07-31T09:28:08;28.50;96.70
45115;DHT22;30877;43.706;10.780;2023-07-31T09:30:46;28.60;96.70
45115;DHT22;30877;43.706;10.780;2023-07-31T09:33:16;28.70;96.70
45115;DHT22;30877;43.706;10.780;2023-07-31T09:35:44;28.80;96.70
45115;DHT22;30877;43.706;10.780;2023-07-31T09:38:15;28.80;96.70
45115;DHT22;30877;43.706;10.780;2023-07-31T09:40:45;29.00;96.70
45115;DHT22;30877;43.706;10.780;2023-07-31T09:43:17;29.00;96.70
45115;DHT22;30877;43.706;10.780;2023-07-31T09:45:46;29.10;96.70
45115;DHT22;30877;43.706;10.780;2023-07-31T09:48:16;29.00;96.70
45115;DHT22;30877;43.706;10.780;2023-07-31T09:50:46;29.00;96.70
45115;DHT22;30877;43.706;10.780;2023-07-31T09:53:17;29.10;96.70
45115;DHT22;30877;43.706;10.780;2023-07-31T09:55:46;29.10;96.70
45115;DHT22;30877;43.706;10.780;2023-07-31T09:58:14;29.10;96.70
45115;DHT22;30877;43.706;10.780;2023-07-31T10:00:42;29.20;96.70
45115;DHT22;30877;43.706;10.780;2023-07-31T10:03:11;29.30;96.70
45115;DHT22;30877;43.706;10.780;2023-07-31T10:05:42;29.40;96.70
45115;DHT22;30877;43.706;10.780;2023-07-31T10:08:14;29.40;96.70
45115;DHT22;30877;43.706;10.780;2023-07-31T10:10:46;29.60;96.70
45115;DHT22;30877;43.706;10.780;2023-07-31T10:13:14;29.70;96.70
45115;DHT22;30877;43.706;10.780;2023-07-31T10:15:43;29.70;96.70
45115;DHT22;30877;43.706;10.780;2023-07-31T10:18:12;29.80;96.70
45115;DHT22;30877;43.706;10.780;2023-07-31T10:20:40;30.00;96.70
45115;DHT22;30877;43.706;10.780;2023-07-31T10:23:09;29.90;96.70
45115;DHT22;30877;43.706;10.780;2023-07-31T10:25:38;30.10;96.70
45115;DHT22;30877;43.706;10.780;2023-07-31T10:28:09;30.20;96.70
45115;DHT22;30877;43.706;10.780;2023-07-31T10:30:39;30.20;96.70
45115;DHT22;30877;43.706;10.780;2023-07-31T10:33:08;30.20;96.70
45115;DHT22;30877;43.706;10.780;2023-07-31T10:35:37;30.30;96.70
45115;DHT22;30877;43.706;10.780;2023-07-31T10:38:11;30.40;96.70
45115;DHT22;30877;43.706;10.780;2023-07-31T10:40:40;30.50;96.70
45115;DHT22;30877;43.706;10.780;2023-07-31T10:43:23;30.60;96.70
45115;DHT22;30877;43.706;10.780;2023-07-31T10:45:53;30.60;96.70
45115;DHT22;30877;43.706;10.780;2023-07-31T10:48:22;30.60;96.70
45115;DHT22;30877;43.706;10.780;2023-07-31T10:50:54;30.70;96.70
45115;DHT22;30877;43.706;10.780;2023-07-31T10:53:25;30.90;96.70
45115;DHT22;30877;43.706;10.780;2023-07-31T10:55:53;31.00;96.70
45115;DHT22;30877;43.706;10.780;2023-07-31T10:58:27;31.40;96.70
45115;DHT22;30877;43.706;10.780;2023-07-31T11:00:56;31.40;96.70
45115;DHT22;30877;43.706;10.780;2023-07-31T11:03:26;31.40;96.70
45115;DHT22;30877;43.706;10.780;2023-07-31T11:06:00;31.50;96.70
45115;DHT22;30877;43.706;10.780;2023-07-31T11:08:33;31.50;96.70
45115;DHT22;30877;43.706;10.780;2023-07-31T11:11:06;31.20;96.70
45115;DHT22;30877;43.706;10.780;2023-07-31T11:13:42;31.20;96.70
45115;DHT22;30877;43.706;10.780;2023-07-31T11:16:12;31.40;96.70
45115;DHT22;30877;43.706;10.780;2023-07-31T11:18:42;31.60;96.70
45115;DHT22;30877;43.706;10.780;2023-07-31T11:21:12;31.80;96.70
45115;DHT22;30877;43.706;10.780;2023-07-31T11:23:45;31.80;96.70
45115;DHT22;30877;43.706;10.780;2023-07-31T11:26:13;31.80;96.70
45115;DHT22;30877;43.706;10.780;2023-07-31T11:28:46;32.10;96.70
45115;DHT22;30877;43.706;10.780;2023-07-31T11:31:14;32.20;96.70
45115;DHT22;30877;43.706;10.780;2023-07-31T11:33:43;32.20;96.70
45115;DHT22;30877;43.706;10.780;2023-07-31T11:36:15;32.20;96.70
45115;DHT22;30877;43.706;10.780;2023-07-31T11:38:44;32.40;96.70
45115;DHT22;30877;43.706;10.780;2023-07-31T11:41:14;32.50;96.70
45115;DHT22;30877;43.706;10.780;2023-07-31T11:43:46;32.60;96.70
45115;DHT22;30877;43.706;10.780;2023-07-31T11:46:15;32.60;96.70
45115;DHT22;30877;43.706;10.780;2023-07-31T11:48:44;32.70;96.70
45115;DHT22;30877;43.706;10.780;2023-07-31T11:51:13;32.60;96.70
45115;DHT22;30877;43.706;10.780;2023-07-31T11:53:44;32.60;96.70
45115;DHT22;30877;43.706;10.780;2023-07-31T11:56:14;32.60;96.70
45115;DHT22;30877;43.706;10.780;2023-07-31T11:58:46;32.60;96.70
45115;DHT22;30877;43.706;10.780;2023-07-31T12:01:17;32.60;96.70
45115;DHT22;30877;43.706;10.780;2023-07-31T12:03:46;32.60;96.70
45115;DHT22;30877;43.706;10.780;2023-07-31T12:06:15;32.80;96.70
45115;DHT22;30877;43.706;10.780;2023-07-31T12:08:44;32.80;96.70
45115;DHT22;30877;43.706;10.780;2023-07-31T12:11:12;32.90;96.70
45115;DHT22;30877;43.706;10.780;2023-07-31T12:13:47;33.10;96.70
45115;DHT22;30877;43.706;10.780;2023-07-31T12:16:15;33.30;96.70
45115;DHT22;30877;43.706;10.780;2023-07-31T12:18:44;33.30;96.70
45115;DHT22;30877;43.706;10.780;2023-07-31T12:21:13;33.40;96.70
45115;DHT22;30877;43.706;10.780;2023-07-31T12:23:43;33.10;96.70
45115;DHT22;30877;43.706;10.780;2023-07-31T12:26:14;33.00;96.70
45115;DHT22;30877;43.706;10.780;2023-07-31T12:28:43;33.10;96.70
45115;DHT22;30877;43.706;10.780;2023-07-31T12:31:15;33.40;96.70
45115;DHT22;30877;43.706;10.780;2023-07-31T12:33:46;33.40;96.70
45115;DHT22;30877;43.706;10.780;2023-07-31T12:36:17;33.50;96.70
45115;DHT22;30877;43.706;10.780;2023-07-31T12:38:46;33.50;96.70
45115;DHT22;30877;43.706;10.780;2023-07-31T12:41:14;33.50;96.70
45115;DHT22;30877;43.706;10.780;2023-07-31T12:43:44;33.70;96.70
45115;DHT22;30877;43.706;10.780;2023-07-31T12:46:15;33.80;96.70
45115;DHT22;30877;43.706;10.780;2023-07-31T12:48:45;33.90;96.70
45115;DHT22;30877;43.706;10.780;2023-07-31T12:51:13;33.90;96.70
45115;DHT22;30877;43.706;10.780;2023-07-31T12:53:42;33.90;96.70
45115;DHT22;30877;43.706;10.780;2023-07-31T12:56:10;33.90;96.70
45115;DHT22;30877;43.706;10.780;2023-07-31T12:58:39;33.80;96.70
45115;DHT22;30877;43.706;10.780;2023-07-31T13:01:07;33.80;96.70
45115;DHT22;30877;43.706;10.780;2023-07-31T13:03:37;33.80;96.70
45115;DHT22;30877;43.706;10.780;2023-07-31T13:06:06;33.90;96.70
45115;DHT22;30877;43.706;10.780;2023-07-31T13:08:34;34.20;96.70
45115;DHT22;30877;43.706;10.780;2023-07-31T13:11:03;34.40;96.70
45115;DHT22;30877;43.706;10.780;2023-07-31T13:13:32;34.30;96.70
45115;DHT22;30877;43.706;10.780;2023-07-31T13:16:01;34.30;96.70
45115;DHT22;30877;43.706;10.780;2023-07-31T13:18:29;34.30;96.70
45115;DHT22;30877;43.706;10.780;2023-07-31T13:20:59;34.30;96.70
45115;DHT22;30877;43.706;10.780;2023-07-31T13:23:27;34.40;96.70
45115;DHT22;30877;43.706;10.780;2023-07-31T13:25:56;34.50;96.70
45115;DHT22;30877;43.706;10.780;2023-07-31T13:28:25;34.70;96.70
45115;DHT22;30877;43.706;10.780;2023-07-31T13:30:53;34.80;96.70
45115;DHT22;30877;43.706;10.780;2023-07-31T13:33:22;34.90;96.70
45115;DHT22;30877;43.706;10.780;2023-07-31T13:36:05;35.30;96.70
45115;DHT22;30877;43.706;10.780;2023-07-31T13:38:34;35.30;96.70
45115;DHT22;30877;43.706;10.780;2023-07-31T13:41:02;35.20;96.70
45115;DHT22;30877;43.706;10.780;2023-07-31T13:43:31;35.40;96.70
45115;DHT22;30877;43.706;10.780;2023-07-31T13:46:00;35.50;96.70
45115;DHT22;30877;43.706;10.780;2023-07-31T13:48:35;35.60;96.70
45115;DHT22;30877;43.706;10.780;2023-07-31T13:51:05;35.50;96.70
45115;DHT22;30877;43.706;10.780;2023-07-31T13:53:34;35.50;96.70
45115;DHT22;30877;43.706;10.780;2023-07-31T13:56:03;35.70;96.70
45115;DHT22;30877;43.706;10.780;2023-07-31T13:58:33;35.70;96.70
45115;DHT22;30877;43.706;10.780;2023-07-31T14:01:01;35.60;96.70
45115;DHT22;30877;43.706;10.780;2023-07-31T14:03:31;35.80;96.70
45115;DHT22;30877;43.706;10.780;2023-07-31T14:05:59;36.00;96.70
45115;DHT22;30877;43.706;10.780;2023-07-31T14:08:29;36.10;96.70
45115;DHT22;30877;43.706;10.780;2023-07-31T14:10:59;36.20;96.70
45115;DHT22;30877;43.706;10.780;2023-07-31T14:13:27;36.10;96.70
45115;DHT22;30877;43.706;10.780;2023-07-31T14:15:55;36.30;96.70
45115;DHT22;30877;43.706;10.780;2023-07-31T14:18:24;36.40;96.70
45115;DHT22;30877;43.706;10.780;2023-07-31T14:20:53;36.50;96.70
45115;DHT22;30877;43.706;10.780;2023-07-31T14:23:21;36.60;96.70
45115;DHT22;30877;43.706;10.780;2023-07-31T14:25:51;36.90;96.70
45115;DHT22;30877;43.706;10.780;2023-07-31T14:28:20;36.90;95.20
45115;DHT22;30877;43.706;10.780;2023-07-31T14:30:48;37.00;94.80
45115;DHT22;30877;43.706;10.780;2023-07-31T14:33:17;36.90;95.60
45115;DHT22;30877;43.706;10.780;2023-07-31T14:35:45;37.00;96.60
45115;DHT22;30877;43.706;10.780;2023-07-31T14:38:14;37.30;95.50
45115;DHT22;30877;43.706;10.780;2023-07-31T14:40:43;37.30;95.20
45115;DHT22;30877;43.706;10.780;2023-07-31T14:43:14;37.00;95.20
45115;DHT22;30877;43.706;10.780;2023-07-31T14:45:42;37.00;94.80
45115;DHT22;30877;43.706;10.780;2023-07-31T14:48:11;37.20;95.40
45115;DHT22;30877;43.706;10.780;2023-07-31T14:50:40;37.20;95.10
45115;DHT22;30877;43.706;10.780;2023-07-31T14:53:09;37.40;95.20
45115;DHT22;30877;43.706;10.780;2023-07-31T14:55:37;37.50;93.90
45115;DHT22;30877;43.706;10.780;2023-07-31T14:58:06;37.60;93.80
45115;DHT22;30877;43.706;10.780;2023-07-31T15:00:36;38.00;93.50
45115;DHT22;30877;43.706;10.780;2023-07-31T15:03:05;37.80;93.50
45115;DHT22;30877;43.706;10.780;2023-07-31T15:05:34;37.90;93.00
45115;DHT22;30877;43.706;10.780;2023-07-31T15:08:02;38.10;92.50
45115;DHT22;30877;43.706;10.780;2023-07-31T15:10:31;38.20;93.10
45115;DHT22;30877;43.706;10.780;2023-07-31T15:13:00;38.00;93.80
45115;DHT22;30877;43.706;10.780;2023-07-31T15:15:29;38.10;94.70
45115;DHT22;30877;43.706;10.780;2023-07-31T15:17:59;38.60;94.00
45115;DHT22;30877;43.706;10.780;2023-07-31T15:20:28;38.50;94.80
45115;DHT22;30877;43.706;10.780;2023-07-31T15:22:57;38.30;95.70
45115;DHT22;30877;43.706;10.780;2023-07-31T15:25:26;38.70;95.90
45115;DHT22;30877;43.706;10.780;2023-07-31T15:27:54;38.80;93.20
45115;DHT22;30877;43.706;10.780;2023-07-31T15:30:24;38.90;94.70
45115;DHT22;30877;43.706;10.780;2023-07-31T15:32:52;39.10;94.20
45115;DHT22;30877;43.706;10.780;2023-07-31T15:35:23;39.40;94.40